createdAt,value
2022-11-19T00:00:45.450Z,90.91
2022-11-19T00:05:49.832Z,91.37
2022-11-19T00:10:53.499Z,91.11
2022-11-19T00:15:55.191Z,91.23
2022-11-19T00:21:02.896Z,91.39
2022-11-19T00:26:11.838Z,90.98
2022-11-19T00:31:15.388Z,91.76
2022-11-19T00:36:17.943Z,91.41
2022-11-19T00:41:21.676Z,91.46
2022-11-19T00:46:26.009Z,91.69
2022-11-19T00:51:30.357Z,90.46
2022-11-19T00:56:34.102Z,90.79
2022-11-19T01:01:36.244Z,92.67
2022-11-19T01:06:38.705Z,91.65
2022-11-19T01:11:42.291Z,91.39
2022-11-19T01:16:44.257Z,91.42
2022-11-19T01:21:46.260Z,91.37
2022-11-19T01:26:49.353Z,91.39
2022-11-19T01:31:51.333Z,91.88
2022-11-19T01:36:53.573Z,91.30
2022-11-19T01:41:56.995Z,91.78
2022-11-19T01:46:59.136Z,91.66
2022-11-19T01:52:03.797Z,91.91
2022-11-19T01:57:10.463Z,91.90
2022-11-19T02:02:13.008Z,91.34
2022-11-19T02:07:15.643Z,91.09
2022-11-19T02:12:33.565Z,91.51
2022-11-19T02:17:53.024Z,92.00
2022-11-19T02:23:11.840Z,91.88
2022-11-19T02:28:30.597Z,90.47
2022-11-19T02:33:42.498Z,91.32
2022-11-19T02:38:50.187Z,92.60
2022-11-19T02:43:54.882Z,91.94
2022-11-19T02:48:58.300Z,91.73
2022-11-19T02:54:00.463Z,90.99
2022-11-19T02:59:03.556Z,91.15
2022-11-19T03:04:09.480Z,91.77
2022-11-19T03:09:12.455Z,92.02
2022-11-19T03:14:21.312Z,91.14
2022-11-19T03:19:35.090Z,90.75
2022-11-19T03:24:42.086Z,90.86
2022-11-19T03:29:48.176Z,92.38
2022-11-19T03:34:57.314Z,91.85
2022-11-19T03:40:03.122Z,92.10
2022-11-19T03:45:12.086Z,91.45
2022-11-19T03:50:22.217Z,92.12
2022-11-19T03:55:31.426Z,92.75
2022-11-19T04:00:34.151Z,91.86
2022-11-19T04:05:37.646Z,92.11
2022-11-19T04:10:39.704Z,91.53
2022-11-19T04:15:41.925Z,92.04
2022-11-19T04:20:46.023Z,92.52
2022-11-19T04:25:48.190Z,91.74
2022-11-19T04:30:50.287Z,91.58
2022-11-19T04:35:53.943Z,92.14
2022-11-19T04:40:56.094Z,91.44
2022-11-19T04:45:58.189Z,90.87
2022-11-19T04:51:01.635Z,91.62
2022-11-19T04:56:04.211Z,91.00
2022-11-19T05:01:06.472Z,91.57
2022-11-19T05:06:10.104Z,91.19
2022-11-19T05:11:12.330Z,91.72
2022-11-19T05:16:14.412Z,91.29
2022-11-19T05:21:18.116Z,91.08
2022-11-19T05:26:20.325Z,92.32
2022-11-19T05:31:22.433Z,92.32
2022-11-19T05:36:25.708Z,92.20
2022-11-19T05:41:28.645Z,92.42
2022-11-19T05:46:30.544Z,91.83
2022-11-19T05:51:34.398Z,92.28
2022-11-19T05:56:36.810Z,92.16
2022-11-19T06:01:38.542Z,91.76
2022-11-19T06:06:42.483Z,91.03
2022-11-19T06:11:44.685Z,90.98
2022-11-19T06:16:46.818Z,91.26
2022-11-19T06:21:51.309Z,91.80
2022-11-19T06:26:53.554Z,91.72
2022-11-19T06:31:55.918Z,92.26
2022-11-19T06:36:59.489Z,92.40
2022-11-19T06:42:01.538Z,92.38
2022-11-19T06:47:03.734Z,92.10
2022-11-19T06:52:07.386Z,92.77
2022-11-19T06:57:09.753Z,92.47
2022-11-19T07:02:12.500Z,92.82
2022-11-19T07:07:16.389Z,92.03
2022-11-19T07:12:18.178Z,90.60
2022-11-19T07:17:19.937Z,90.23
2022-11-19T07:22:23.147Z,90.07
2022-11-19T07:27:24.880Z,89.61
2022-11-19T07:32:27.048Z,88.70
2022-11-19T07:37:30.144Z,87.79
2022-11-19T07:42:32.018Z,87.79
2022-11-19T07:47:34.364Z,87.72
2022-11-19T07:52:37.910Z,86.66
2022-11-19T07:57:39.702Z,86.20
2022-11-19T08:02:41.362Z,86.67
2022-11-19T08:07:44.850Z,87.10
2022-11-19T08:12:46.713Z,87.38
2022-11-19T08:17:48.432Z,86.97
2022-11-19T08:22:52.007Z,87.51
2022-11-19T08:27:53.767Z,87.33
2022-11-19T08:32:55.494Z,87.13
2022-11-19T08:37:58.535Z,86.02
2022-11-19T08:43:00.295Z,85.49
2022-11-19T08:48:05.138Z,85.38
2022-11-19T08:53:09.137Z,83.96
2022-11-19T08:58:11.956Z,83.50
2022-11-19T09:03:13.729Z,82.01
2022-11-19T09:08:17.083Z,82.10
2022-11-19T09:13:18.885Z,81.95
2022-11-19T09:18:21.233Z,81.98
2022-11-19T09:23:25.980Z,81.87
2022-11-19T09:28:29.352Z,82.90
2022-11-19T09:33:37.445Z,81.28
2022-11-19T09:38:42.903Z,80.17
2022-11-19T09:43:55.604Z,77.54
2022-11-19T09:49:04.462Z,76.56
2022-11-19T09:54:12.318Z,65.59
2022-11-19T09:59:24.894Z,59.65
2022-11-19T10:04:31.618Z,65.77
2022-11-19T10:09:47.474Z,58.79
2022-11-19T10:15:14.238Z,43.60
2022-11-19T10:20:34.472Z,47.97
2022-11-19T10:25:42.556Z,47.61
2022-11-19T10:30:50.605Z,55.98
2022-11-19T10:35:57.892Z,53.23
2022-11-19T10:41:08.743Z,54.93
2022-11-19T10:46:15.384Z,58.04
2022-11-19T10:51:23.245Z,61.50
2022-11-19T10:56:35.572Z,59.55
2022-11-19T11:01:40.756Z,58.73
2022-11-19T11:06:51.095Z,62.41
2022-11-19T11:11:54.724Z,64.05
2022-11-19T11:16:56.431Z,64.81
2022-11-19T11:21:58.769Z,64.20
2022-11-19T11:27:20.169Z,63.69
2022-11-19T11:32:30.340Z,64.55
2022-11-19T11:37:33.582Z,66.12
2022-11-19T11:42:37.329Z,67.61
2022-11-19T11:47:40.099Z,65.46
2022-11-19T11:52:45.313Z,64.25
2022-11-19T11:57:55.295Z,62.04
2022-11-19T12:03:02.133Z,62.21
2022-11-19T12:08:06.776Z,60.70
2022-11-19T12:13:39.470Z,59.32
2022-11-19T12:18:50.312Z,59.84
2022-11-19T12:24:07.646Z,58.29
2022-11-19T12:29:25.913Z,58.40
2022-11-19T12:35:03.317Z,57.03
2022-11-19T12:40:20.430Z,57.98
2022-11-19T12:45:32.889Z,58.50
2022-11-19T12:50:49.105Z,57.85
2022-11-19T12:55:59.763Z,59.01
2022-11-19T13:01:09.358Z,59.94
2022-11-19T13:06:18.290Z,60.04
2022-11-19T13:11:24.570Z,61.21
2022-11-19T13:16:31.042Z,60.11
2022-11-19T13:21:43.876Z,61.17
2022-11-19T13:26:46.360Z,62.88
2022-11-19T13:31:55.600Z,64.52
2022-11-19T13:37:02.655Z,66.12
2022-11-19T13:42:07.901Z,67.02
2022-11-19T13:47:17.616Z,68.27
2022-11-19T13:52:26.174Z,67.83
2022-11-19T13:57:31.296Z,68.70
2022-11-19T14:03:05.929Z,69.60
2022-11-19T14:08:40.782Z,70.97
2022-11-19T14:14:01.724Z,71.58
2022-11-19T14:19:12.722Z,72.45
2022-11-19T14:24:47.689Z,72.92
2022-11-19T14:29:58.480Z,72.38
2022-11-19T14:35:33.695Z,72.24
2022-11-19T14:40:40.838Z,73.27
2022-11-19T14:46:18.222Z,72.40
2022-11-19T14:51:30.895Z,72.71
2022-11-19T14:56:35.934Z,72.97
2022-11-19T15:01:52.822Z,73.04
2022-11-19T15:06:57.215Z,73.11
2022-11-19T15:12:00.783Z,73.04
2022-11-19T15:17:04.012Z,73.03
2022-11-19T15:22:38.210Z,73.10
2022-11-19T15:27:55.228Z,72.88
2022-11-19T15:33:16.382Z,73.07
2022-11-19T15:38:28.065Z,73.64
2022-11-19T15:43:35.295Z,73.74
2022-11-19T15:48:42.777Z,73.54
2022-11-19T15:53:59.482Z,73.99
2022-11-19T15:59:02.148Z,73.82
2022-11-19T16:04:07.867Z,74.79
2022-11-19T16:09:18.460Z,74.65
2022-11-19T16:14:22.228Z,74.83
2022-11-19T16:19:24.678Z,75.19
2022-11-19T16:24:32.052Z,75.15
2022-11-19T16:29:39.068Z,75.29
2022-11-19T16:34:41.237Z,75.38
2022-11-19T16:39:51.289Z,76.60
2022-11-19T16:44:55.228Z,77.05
2022-11-19T16:50:02.300Z,77.88
2022-11-19T16:55:06.942Z,79.03
2022-11-19T17:00:15.480Z,79.23
2022-11-19T17:05:19.622Z,79.95
2022-11-19T17:10:29.678Z,80.23
2022-11-19T17:15:42.300Z,80.37
2022-11-19T17:20:55.523Z,80.84
2022-11-19T17:26:01.325Z,82.41
2022-11-19T17:31:14.298Z,83.41
2022-11-19T17:36:16.151Z,84.09
2022-11-19T17:41:23.108Z,85.40
2022-11-19T17:46:26.756Z,85.99
2022-11-19T17:51:28.476Z,87.16
2022-11-19T17:56:31.656Z,88.40
2022-11-19T18:01:33.599Z,89.21
2022-11-19T18:06:35.461Z,89.95
2022-11-19T18:11:43.045Z,89.94
2022-11-19T18:16:44.774Z,90.29
2022-11-19T18:21:46.501Z,90.97
2022-11-19T18:26:49.969Z,91.64
2022-11-19T18:31:52.255Z,91.72
2022-11-19T18:36:54.365Z,91.94
2022-11-19T18:41:58.061Z,92.16
2022-11-19T18:47:00.127Z,92.44
2022-11-19T18:52:02.615Z,92.33
2022-11-19T18:57:05.823Z,92.13
2022-11-19T19:02:09.780Z,91.80
2022-11-19T19:07:11.968Z,91.07
2022-11-19T19:12:15.668Z,90.71
2022-11-19T19:17:17.912Z,90.68
2022-11-19T19:22:20.174Z,90.05
2022-11-19T19:27:23.591Z,90.19
2022-11-19T19:32:25.919Z,90.13
2022-11-19T19:37:27.675Z,89.96
2022-11-19T19:42:31.304Z,90.27
2022-11-19T19:47:33.095Z,90.29
2022-11-19T19:52:35.208Z,90.86
2022-11-19T19:57:38.403Z,91.51
2022-11-19T20:02:40.525Z,92.07
2022-11-19T20:07:42.931Z,92.61
2022-11-19T20:12:46.010Z,93.38
2022-11-19T20:17:47.986Z,93.88
2022-11-19T20:22:50.055Z,94.25
2022-11-19T20:27:53.734Z,94.40
2022-11-19T20:32:55.549Z,94.49
2022-11-19T20:38:02.249Z,94.11
2022-11-19T20:43:06.467Z,94.11
2022-11-19T20:48:08.696Z,94.16
2022-11-19T20:53:11.208Z,94.11
2022-11-19T20:58:14.472Z,94.17
2022-11-19T21:03:16.318Z,94.54
2022-11-19T21:08:18.127Z,94.98
2022-11-19T21:13:21.503Z,95.49
2022-11-19T21:18:24.651Z,95.11
2022-11-19T21:23:26.556Z,95.29
2022-11-19T21:28:31.875Z,95.90
2022-11-19T21:33:34.239Z,96.01
2022-11-19T21:38:39.817Z,96.11
2022-11-19T21:43:43.062Z,96.21
2022-11-19T21:48:44.825Z,96.28
2022-11-19T21:53:46.717Z,96.28
2022-11-19T21:58:49.882Z,96.54
2022-11-19T22:03:52.078Z,96.48
2022-11-19T22:08:54.197Z,96.95
2022-11-19T22:14:02.265Z,97.05
2022-11-19T22:19:05.020Z,97.19
2022-11-19T22:24:07.005Z,97.15
2022-11-19T22:29:10.553Z,97.14
2022-11-19T22:34:12.684Z,96.97
2022-11-19T22:39:14.367Z,96.54
2022-11-19T22:44:17.785Z,96.67
2022-11-19T22:49:20.275Z,95.92
2022-11-19T22:54:22.462Z,96.16
2022-11-19T22:59:25.708Z,96.40
2022-11-19T23:04:28.024Z,96.46
2022-11-19T23:09:30.149Z,96.43
2022-11-19T23:14:33.534Z,96.25
2022-11-19T23:19:37.502Z,96.20
2022-11-19T23:24:39.653Z,95.78
2022-11-19T23:29:42.991Z,95.71
2022-11-19T23:34:45.154Z,95.21
2022-11-19T23:39:47.088Z,95.17
2022-11-19T23:44:50.530Z,95.18
2022-11-19T23:49:52.676Z,95.13
2022-11-19T23:54:54.755Z,95.44
2022-11-19T23:59:58.228Z,94.75
